Time;durP1;ratioP1;P1;durP2;ratioP2;P2;SDS_P1;SDS_P2;PMS_P1;PMS_P2;Temp;Humidity;BMP_temperature;BMP_pressure;BME280_temperature;BME280_humidity;BME280_pressure;Samples;Min_cycle;Max_cycle;Signal;HPM_P1;HPM_P2
2021/08/23 00:01:55;;;;;;;4.53;3.38;;;;;;;22.61;36.36;98354.69;6230905;23;20028;-68
2021/08/23 00:04:21;;;;;;;2.75;2.38;;;;;;;22.59;36.42;98359.78;6244339;23;20087;-67
2021/08/23 00:06:47;;;;;;;4.72;3.88;;;;;;;22.57;36.42;98359.31;6244645;23;20004;-67
2021/08/23 00:09:12;;;;;;;2.50;2.30;;;;;;;22.55;36.35;98359.59;6244491;23;20054;-66
2021/08/23 00:11:38;;;;;;;4.47;2.42;;;;;;;22.53;36.40;98349.91;6244454;23;20047;-66
2021/08/23 00:14:04;;;;;;;4.53;2.38;;;;;;;22.50;36.31;98350.56;6244707;23;20031;-66
2021/08/23 00:16:30;;;;;;;4.22;2.92;;;;;;;22.49;36.41;98351.69;6244556;23;20403;-66
2021/08/23 00:18:55;;;;;;;6.07;2.85;;;;;;;22.45;36.43;98354.31;6245546;23;20008;-66
2021/08/23 00:21:23;;;;;;;3.00;2.70;;;;;;;22.44;36.64;98352.69;6244624;23;20012;-66
2021/08/23 00:23:52;;;;;;;5.22;2.60;;;;;;;22.42;36.49;98345.75;6244624;23;20016;-67
2021/08/23 00:26:18;;;;;;;2.90;2.38;;;;;;;22.40;36.37;98352.47;6244512;23;20015;-66
2021/08/23 00:28:44;;;;;;;2.92;1.98;;;;;;;22.37;36.50;98353.13;6244635;23;20016;-67
2021/08/23 00:31:09;;;;;;;4.85;2.97;;;;;;;22.35;36.68;98349.84;6244695;23;20047;-67
2021/08/23 00:33:35;;;;;;;8.00;2.80;;;;;;;22.32;36.70;98356.09;6244373;22;20419;-68
2021/08/23 00:36:01;;;;;;;4.82;2.55;;;;;;;22.29;36.71;98351.13;6244774;23;20043;-67
2021/08/23 00:38:27;;;;;;;1.95;1.85;;;;;;;22.28;36.82;98351.44;6244632;23;20399;-67
2021/08/23 00:40:52;;;;;;;2.17;1.77;;;;;;;22.26;36.63;98357.38;6243130;23;20448;-67
2021/08/23 00:43:18;;;;;;;2.88;2.65;;;;;;;22.26;36.98;98359.31;6244596;23;20012;-67
2021/08/23 00:45:45;;;;;;;2.17;1.85;;;;;;;22.26;36.51;98350.94;6246165;23;20345;-68
2021/08/23 00:48:11;;;;;;;8.05;2.33;;;;;;;22.26;36.83;98362.97;6246814;23;20012;-68
2021/08/23 00:50:36;;;;;;;4.57;1.90;;;;;;;22.26;36.84;98360.16;6246422;23;20099;-67
2021/08/23 00:53:03;;;;;;;8.90;3.42;;;;;;;22.26;36.74;98350.94;6246268;23;20015;-67
2021/08/23 00:55:32;;;;;;;4.90;2.42;;;;;;;22.28;36.65;98359.84;6246212;23;20044;-65
2021/08/23 00:57:59;;;;;;;6.60;4.20;;;;;;;22.30;36.64;98357.53;6246211;23;20012;-67
2021/08/23 01:00:25;;;;;;;8.32;2.78;;;;;;;22.32;36.86;98355.25;6244333;23;20012;-65
2021/08/23 01:03:06;;;;;;;2.33;1.55;;;;;;;22.36;36.31;98350.66;6246284;22;20051;-72
2021/08/23 01:05:33;;;;;;;5.18;3.33;;;;;;;22.38;36.67;98352.00;6220629;23;20051;-73
2021/08/23 01:08:14;;;;;;;1.85;1.20;;;;;;;22.44;36.52;98346.22;6254145;23;20035;-71
2021/08/23 01:10:44;;;;;;;2.53;1.85;;;;;;;22.48;36.70;98347.25;6252216;23;20012;-72
2021/08/23 01:13:10;;;;;;;3.00;2.08;;;;;;;22.54;36.60;98337.53;6246523;23;20471;-72
2021/08/23 01:15:36;;;;;;;3.80;1.85;;;;;;;22.62;36.43;98347.13;6246099;23;20031;-70
2021/08/23 01:18:03;;;;;;;2.83;2.60;;;;;;;22.67;36.38;98342.19;6246602;23;20094;-71
2021/08/23 01:20:34;;;;;;;4.25;1.73;;;;;;;22.72;36.43;98335.63;6246372;23;20341;-73
2021/08/23 01:23:01;;;;;;;1.40;1.00;;;;;;;22.81;35.90;98344.84;6246385;23;20007;-72
2021/08/23 01:25:31;;;;;;;3.22;2.22;;;;;;;22.90;35.66;98344.84;6246887;23;20034;-72
2021/08/23 01:28:09;;;;;;;7.13;1.80;;;;;;;22.99;35.92;98340.06;6246016;23;20060;-72
2021/08/23 01:31:03;;;;;;;2.17;1.88;;;;;;;23.08;35.83;98338.09;6246130;23;20016;-72
2021/08/23 01:33:30;;;;;;;2.67;1.23;;;;;;;23.18;35.48;98338.97;6245582;23;20012;-73
2021/08/23 01:35:56;;;;;;;1.63;1.50;;;;;;;23.25;35.66;98345.72;6245820;23;20062;-70
2021/08/23 01:38:22;;;;;;;3.20;2.17;;;;;;;23.35;35.51;98341.75;6246257;23;20090;-72
2021/08/23 01:41:07;;;;;;;2.67;2.03;;;;;;;23.50;35.11;98331.16;6245925;23;20381;-71
2021/08/23 01:43:33;;;;;;;6.68;1.67;;;;;;;24.05;34.63;98346.41;6245904;23;20011;-72
2021/08/23 01:45:59;;;;;;;1.65;1.38;;;;;;;25.03;33.31;98346.34;6245782;23;20011;-72
2021/08/23 01:48:25;;;;;;;2.42;1.48;;;;;;;26.17;31.93;98351.69;6245622;23;20012;-72
2021/08/23 01:50:51;;;;;;;1.27;1.20;;;;;;;27.21;30.62;98340.13;6245614;23;20012;-71
2021/08/23 01:53:18;;;;;;;2.33;1.20;;;;;;;28.12;29.40;98340.63;6246038;23;20062;-73
2021/08/23 01:55:44;;;;;;;3.00;1.30;;;;;;;28.90;28.84;98342.94;6246889;23;20341;-73
2021/08/23 01:58:11;;;;;;;3.47;1.25;;;;;;;29.51;28.41;98330.97;6220579;23;20039;-71
2021/08/23 02:00:37;;;;;;;1.75;1.40;;;;;;;30.08;28.05;98347.44;6245575;23;20019;-71
2021/08/23 02:03:03;;;;;;;2.13;1.95;;;;;;;30.58;27.82;98344.66;6245034;23;20082;-69
2021/08/23 02:05:30;;;;;;;3.20;1.20;;;;;;;31.06;27.17;98347.00;6245676;23;20012;-69
2021/08/23 02:07:56;;;;;;;2.25;1.85;;;;;;;31.54;26.93;98360.59;6245658;23;20015;-70
2021/08/23 02:10:21;;;;;;;2.72;1.02;;;;;;;31.88;26.80;98352.91;6245709;23;20012;-62
2021/08/23 02:12:48;;;;;;;1.83;1.48;;;;;;;32.26;26.53;98338.69;6245246;23;20361;-63
2021/08/23 02:15:14;;;;;;;3.40;1.67;;;;;;;32.65;26.21;98347.50;6245836;23;20091;-65
2021/08/23 02:17:40;;;;;;;2.15;1.55;;;;;;;33.15;25.92;98346.25;6245009;23;20043;-62
2021/08/23 02:20:08;;;;;;;1.30;0.77;;;;;;;33.67;25.63;98334.69;6245845;23;20396;-63
2021/08/23 02:22:33;;;;;;;1.38;1.00;;;;;;;34.26;25.19;98343.00;6244283;23;20007;-63
2021/08/23 02:24:59;;;;;;;1.33;1.23;;;;;;;34.84;24.85;98351.56;6243981;23;20111;-63
2021/08/23 02:27:25;;;;;;;0.40;0.40;;;;;;;35.39;24.51;98344.50;6244304;23;20012;-64
2021/08/23 02:29:51;;;;;;;0.52;0.43;;;;;;;35.87;23.72;98343.06;6244010;23;20008;-63
2021/08/23 02:32:16;;;;;;;2.22;0.73;;;;;;;36.34;23.62;98335.00;6245245;23;20110;-62
2021/08/23 02:34:42;;;;;;;1.58;0.82;;;;;;;36.79;23.07;98337.09;6244815;23;20314;-63
2021/08/23 02:37:08;;;;;;;2.47;0.93;;;;;;;37.18;22.97;98333.78;6218370;23;20440;-63
2021/08/23 02:39:34;;;;;;;0.65;0.55;;;;;;;37.45;23.05;98333.09;6245431;23;20445;-62
2021/08/23 02:42:00;;;;;;;1.08;0.70;;;;;;;37.80;22.99;98362.53;6245251;23;20015;-62
2021/08/23 02:44:26;;;;;;;0.98;0.90;;;;;;;38.16;22.78;98346.84;6245229;23;20019;-63
2021/08/23 02:46:52;;;;;;;1.15;1.05;;;;;;;38.41;22.31;98345.69;6245379;23;20062;-64
2021/08/23 02:49:18;;;;;;;0.68;0.47;;;;;;;38.74;22.26;98341.06;6218235;23;20008;-63
2021/08/23 02:51:45;;;;;;;0.85;0.70;;;;;;;39.12;21.84;98335.03;6245125;23;20019;-63
2021/08/23 02:54:12;;;;;;;1.05;0.70;;;;;;;39.35;22.13;98342.75;6245159;23;20020;-63
2021/08/23 02:56:37;;;;;;;0.10;0.10;;;;;;;39.83;21.58;98340.53;6245058;23;20008;-62
2021/08/23 02:59:03;;;;;;;1.20;1.20;;;;;;;40.87;20.77;98336.38;6245246;23;20035;-62
2021/08/23 03:01:29;;;;;;;0.17;0.17;;;;;;;41.12;20.70;98333.69;6244952;23;20036;-61
2021/08/23 03:03:55;;;;;;;0.63;0.30;;;;;;;41.24;20.74;98337.03;6250509;23;20018;-62
2021/08/23 03:06:20;;;;;;;0.77;0.77;;;;;;;41.44;20.46;98340.59;6250247;23;20463;-63
2021/08/23 03:08:46;;;;;;;0.95;0.80;;;;;;;41.46;20.63;98340.97;6244460;23;20000;-62
2021/08/23 03:11:14;;;;;;;0.50;0.35;;;;;;;41.47;20.82;98322.38;6245277;23;20012;-63
2021/08/23 03:13:42;;;;;;;0.52;0.45;;;;;;;41.82;20.52;98319.72;6244892;23;20008;-61
2021/08/23 03:16:10;;;;;;;0.35;0.35;;;;;;;42.06;20.21;98322.25;6244863;23;20368;-62
2021/08/23 03:18:36;;;;;;;0.70;0.70;;;;;;;42.36;20.13;98331.59;6244992;23;20012;-61
2021/08/23 03:21:03;;;;;;;0.68;0.68;;;;;;;42.65;19.66;98325.69;6244941;23;20050;-61
2021/08/23 03:23:30;;;;;;;0.45;0.45;;;;;;;42.99;19.35;98329.06;6245000;23;20422;-62
2021/08/23 03:25:56;;;;;;;1.35;0.32;;;;;;;43.22;19.48;98325.75;6244755;23;20008;-62
2021/08/23 03:28:22;;;;;;;0.45;0.45;;;;;;;43.51;19.39;98330.47;6244991;23;20012;-63
2021/08/23 03:30:48;;;;;;;0.45;0.45;;;;;;;43.95;18.87;98335.38;6244690;23;20042;-63
2021/08/23 03:33:14;;;;;;;0.80;0.80;;;;;;;44.23;18.96;98344.22;6243873;23;20087;-62
2021/08/23 03:35:40;;;;;;;1.88;1.08;;;;;;;44.54;18.61;98335.50;6244472;23;20012;-62
2021/08/23 03:38:06;;;;;;;0.30;0.30;;;;;;;44.94;18.09;98334.59;6244799;23;20103;-62
2021/08/23 03:40:32;;;;;;;0.98;0.60;;;;;;;45.26;18.49;98332.38;6244814;23;20062;-61
2021/08/23 03:42:58;;;;;;;2.08;0.60;;;;;;;45.67;18.10;98329.25;6244782;23;20016;-62
2021/08/23 03:45:24;;;;;;;0.50;0.50;;;;;;;46.09;17.91;98339.31;6244621;23;20396;-62
2021/08/23 03:47:49;;;;;;;0.98;0.47;;;;;;;46.33;17.81;98331.47;6244772;23;20058;-62
2021/08/23 03:50:15;;;;;;;0.28;0.28;;;;;;;46.45;17.72;98337.53;6244934;23;20012;-61
2021/08/23 03:52:41;;;;;;;0.32;0.32;;;;;;;46.46;17.58;98334.16;6244684;23;20008;-62
2021/08/23 03:55:08;;;;;;;0.35;0.35;;;;;;;45.99;18.21;98324.84;6244058;23;20353;-60
2021/08/23 03:57:35;;;;;;;1.08;0.55;;;;;;;44.22;19.23;98320.25;6243414;23;20012;-63
2021/08/23 04:00:03;;;;;;;0.65;0.65;;;;;;;41.80;21.64;98316.50;6243363;23;20024;-63
2021/08/23 04:02:29;;;;;;;0.50;0.50;;;;;;;39.41;24.02;98315.13;6242897;23;20119;-63
2021/08/23 04:04:55;;;;;;;0.60;0.40;;;;;;;37.46;25.62;98313.88;6242720;23;20020;-62
2021/08/23 04:07:21;;;;;;;0.82;0.63;;;;;;;35.71;27.04;98297.84;6216504;23;20011;-62
2021/08/23 04:09:47;;;;;;;1.20;0.68;;;;;;;34.37;28.11;98303.09;6243138;23;20031;-61
2021/08/23 04:12:12;;;;;;;0.43;0.43;;;;;;;33.45;29.05;98294.78;6243400;23;20012;-63
2021/08/23 04:14:38;;;;;;;1.17;0.55;;;;;;;32.83;29.22;98299.34;6216236;23;20075;-62
2021/08/23 04:17:04;;;;;;;0.65;0.63;;;;;;;32.39;29.06;98285.22;6243273;23;20373;-62
2021/08/23 04:19:31;;;;;;;1.42;0.40;;;;;;;32.05;28.87;98294.66;6244160;23;20023;-63
2021/08/23 04:21:57;;;;;;;0.43;0.43;;;;;;;31.86;28.58;98298.53;6245093;23;20094;-63
2021/08/23 04:24:23;;;;;;;0.55;0.55;;;;;;;31.73;28.62;98294.31;6242453;23;20459;-63
2021/08/23 04:26:49;;;;;;;1.60;0.43;;;;;;;31.62;28.22;98294.22;6245063;23;20087;-62
2021/08/23 04:29:15;;;;;;;2.08;0.63;;;;;;;31.58;28.08;98287.69;6244869;23;20063;-62
2021/08/23 04:31:42;;;;;;;0.50;0.45;;;;;;;31.57;27.86;98286.06;6244507;23;20011;-63
2021/08/23 04:34:08;;;;;;;0.30;0.30;;;;;;;31.55;27.60;98289.28;6244540;23;20057;-63
2021/08/23 04:36:35;;;;;;;0.65;0.20;;;;;;;31.62;27.33;98294.22;6245283;23;20501;-64
2021/08/23 04:39:02;;;;;;;0.30;0.30;;;;;;;32.07;26.56;98303.59;6245054;23;20012;-64
2021/08/23 04:41:27;;;;;;;0.30;0.30;;;;;;;32.69;25.88;98298.47;6245254;23;20012;-66
2021/08/23 04:43:53;;;;;;;0.57;0.50;;;;;;;32.82;25.65;98309.09;6244976;23;20012;-63
2021/08/23 04:46:19;;;;;;;1.48;0.75;;;;;;;32.62;25.80;98314.19;6245271;23;20106;-63
2021/08/23 04:48:44;;;;;;;0.55;0.55;;;;;;;32.38;26.17;98312.00;6244767;23;20015;-63
2021/08/23 04:51:10;;;;;;;1.52;0.82;;;;;;;32.14;26.18;98320.72;6218044;23;20016;-64
2021/08/23 04:53:37;;;;;;;0.40;0.40;;;;;;;32.07;26.52;98331.19;6242040;23;20069;-64
2021/08/23 04:56:08;;;;;;;0.10;0.10;;;;;;;31.91;26.69;98334.28;6243388;23;20334;-63
2021/08/23 04:58:34;;;;;;;0.17;0.17;;;;;;;31.83;26.60;98335.38;6251812;23;20085;-66
2021/08/23 05:00:59;;;;;;;0.98;0.60;;;;;;;31.73;26.74;98346.25;6252055;23;20020;-64
2021/08/23 05:03:25;;;;;;;0.32;0.32;;;;;;;31.64;26.83;98334.41;6242992;23;20163;-69
2021/08/23 05:05:51;;;;;;;0.80;0.68;;;;;;;31.71;26.86;98337.28;6243298;23;20014;-64
2021/08/23 05:08:18;;;;;;;0.80;0.75;;;;;;;31.78;26.42;98328.06;6242873;23;20034;-62
2021/08/23 05:10:44;;;;;;;0.38;0.20;;;;;;;31.84;26.35;98337.84;6243249;23;20073;-63
2021/08/23 05:13:10;;;;;;;0.57;0.57;;;;;;;31.77;26.42;98335.75;6242398;23;20357;-61
2021/08/23 05:15:36;;;;;;;0.43;0.43;;;;;;;31.61;26.70;98335.97;6243219;23;20011;-64
2021/08/23 05:18:01;;;;;;;0.57;0.50;;;;;;;31.49;26.66;98339.03;6243370;23;20380;-62
2021/08/23 05:20:27;;;;;;;0.10;0.10;;;;;;;31.31;26.96;98341.66;6215972;23;20063;-63
2021/08/23 05:22:53;;;;;;;3.25;0.40;;;;;;;31.11;27.22;98332.50;6242817;23;20015;-63
2021/08/23 05:25:19;;;;;;;0.30;0.22;;;;;;;30.91;27.51;98332.59;6239818;23;20039;-61
2021/08/23 05:27:46;;;;;;;1.00;0.30;;;;;;;30.71;27.34;98336.75;6242833;23;20008;-62
2021/08/23 05:30:12;;;;;;;0.52;0.47;;;;;;;30.49;27.97;98335.59;6242522;23;20008;-67
2021/08/23 05:32:38;;;;;;;0.28;0.28;;;;;;;30.25;28.15;98323.44;6244320;23;20015;-65
2021/08/23 05:35:05;;;;;;;0.10;0.10;;;;;;;30.01;28.22;98319.78;6216734;23;20035;-63
2021/08/23 05:37:30;;;;;;;0.20;0.20;;;;;;;29.84;28.44;98320.28;6243653;23;20035;-63
2021/08/23 05:39:56;;;;;;;0.30;0.30;;;;;;;29.66;28.44;98317.91;6243310;23;20441;-62
2021/08/23 05:42:22;;;;;;;0.28;0.28;;;;;;;29.50;28.95;98331.34;6242244;23;20464;-62
2021/08/23 05:44:48;;;;;;;0.30;0.30;;;;;;;29.44;28.94;98338.50;6242583;23;20019;-61
2021/08/23 05:47:14;;;;;;;1.15;0.52;;;;;;;29.45;28.52;98328.81;6242632;23;20012;-61
2021/08/23 05:49:40;;;;;;;1.75;0.82;;;;;;;29.53;28.63;98325.75;6242638;23;20036;-61
2021/08/23 05:52:06;;;;;;;0.35;0.25;;;;;;;29.69;28.23;98325.66;6242918;23;20008;-62
2021/08/23 05:54:31;;;;;;;1.27;0.80;;;;;;;29.85;28.33;98319.09;6242613;23;20087;-62
2021/08/23 05:56:58;;;;;;;1.23;0.35;;;;;;;30.00;27.98;98334.34;6242948;23;20008;-62
2021/08/23 05:59:24;;;;;;;0.17;0.17;;;;;;;30.16;27.73;98328.56;6242449;23;20008;-62
2021/08/23 06:01:53;;;;;;;0.40;0.30;;;;;;;30.40;27.64;98324.50;6242794;23;20027;-63
2021/08/23 06:04:20;;;;;;;0.10;0.10;;;;;;;30.70;27.10;98330.25;6241556;23;20095;-62
2021/08/23 06:06:46;;;;;;;0.70;0.70;;;;;;;31.03;26.98;98333.59;6242328;23;20160;-62
2021/08/23 06:09:12;;;;;;;1.77;0.47;;;;;;;31.38;26.67;98332.44;6242274;23;20083;-61
2021/08/23 06:11:38;;;;;;;0.10;0.10;;;;;;;31.71;26.19;98336.47;6242739;23;20044;-63
2021/08/23 06:14:03;;;;;;;0.40;0.40;;;;;;;31.99;25.93;98335.97;6242561;23;20445;-62
2021/08/23 06:16:29;;;;;;;0.88;0.30;;;;;;;32.24;26.23;98324.06;6242666;23;20022;-64
2021/08/23 06:18:55;;;;;;;0.75;0.55;;;;;;;32.43;25.84;98326.63;6242851;23;20015;-61
2021/08/23 06:21:21;;;;;;;0.20;0.15;;;;;;;32.52;26.10;98322.66;6242200;23;20079;-62
2021/08/23 06:23:46;;;;;;;1.45;0.40;;;;;;;32.57;26.06;98330.81;6242476;23;20008;-62
2021/08/23 06:26:12;;;;;;;0.10;0.10;;;;;;;32.52;26.12;98322.66;6241075;23;20511;-62
2021/08/23 06:28:38;;;;;;;0.20;0.17;;;;;;;32.38;26.18;98329.84;6240555;23;20012;-63
2021/08/23 06:31:03;;;;;;;0.30;0.30;;;;;;;32.23;26.38;98325.25;6243101;23;20101;-63
2021/08/23 06:33:29;;;;;;;1.95;0.43;;;;;;;32.09;26.43;98331.59;6242671;23;20083;-62
2021/08/23 06:35:55;;;;;;;0.30;0.30;;;;;;;31.99;26.70;98333.13;6244020;23;20019;-63
2021/08/23 06:38:21;;;;;;;0.00;0.00;;;;;;;31.95;26.91;98335.13;6243614;23;20012;-63
2021/08/23 06:40:46;;;;;;;1.55;1.02;;;;;;;32.02;26.46;98342.88;6243951;23;20008;-62
2021/08/23 06:43:12;;;;;;;0.20;0.20;;;;;;;32.16;26.78;98347.94;6243364;23;20070;-63
2021/08/23 06:45:38;;;;;;;0.35;0.10;;;;;;;32.32;26.58;98345.66;6243758;23;20015;-62
2021/08/23 06:48:04;;;;;;;0.28;0.20;;;;;;;32.42;26.59;98352.59;6240931;23;20015;-63
2021/08/23 06:50:29;;;;;;;0.20;0.20;;;;;;;32.38;26.63;98338.38;6243262;23;20094;-64
2021/08/23 06:52:56;;;;;;;1.08;0.20;;;;;;;32.27;26.78;98349.66;6247605;23;20008;-64
2021/08/23 06:55:22;;;;;;;0.32;0.30;;;;;;;32.18;26.70;98351.19;6246298;23;20058;-63
2021/08/23 06:57:47;;;;;;;0.43;0.43;;;;;;;32.17;27.05;98352.38;6216226;23;20445;-61
2021/08/23 07:00:14;;;;;;;0.22;0.22;;;;;;;32.27;27.02;98341.16;6242720;23;20011;-63
2021/08/23 07:02:41;;;;;;;0.20;0.20;;;;;;;32.48;26.72;98346.19;6243468;23;20024;-62
2021/08/23 07:05:08;;;;;;;0.63;0.30;;;;;;;32.70;26.36;98340.69;6242948;23;20042;-63
2021/08/23 07:07:34;;;;;;;0.52;0.52;;;;;;;32.81;26.11;98346.44;6243133;23;20073;-63
2021/08/23 07:09:59;;;;;;;0.28;0.28;;;;;;;32.92;26.03;98343.66;6243270;23;20012;-63
2021/08/23 07:12:25;;;;;;;1.05;0.47;;;;;;;32.94;26.25;98347.75;6243373;23;20086;-62
2021/08/23 07:14:51;;;;;;;0.50;0.50;;;;;;;32.90;26.30;98351.78;6216736;23;20457;-62
2021/08/23 07:17:17;;;;;;;2.08;0.45;;;;;;;32.84;26.49;98346.47;6243410;23;20012;-64
2021/08/23 07:19:42;;;;;;;0.20;0.20;;;;;;;32.79;26.67;98348.88;6243305;23;20087;-62
2021/08/23 07:22:14;;;;;;;0.77;0.45;;;;;;;32.65;26.81;98341.81;6243276;23;20130;-64
2021/08/23 07:24:40;;;;;;;0.10;0.10;;;;;;;32.60;26.99;98345.06;6216552;23;20043;-63
2021/08/23 07:27:06;;;;;;;1.48;1.17;;;;;;;32.59;26.74;98345.44;6243371;23;20054;-63
2021/08/23 07:29:31;;;;;;;0.63;0.32;;;;;;;32.48;27.17;98351.88;6242940;23;20065;-63
2021/08/23 07:31:57;;;;;;;0.57;0.52;;;;;;;32.35;27.25;98359.06;6243130;23;20380;-63
2021/08/23 07:34:23;;;;;;;0.30;0.30;;;;;;;32.28;27.34;98364.69;6242440;23;20051;-63
2021/08/23 07:36:51;;;;;;;0.80;0.50;;;;;;;32.26;27.48;98352.91;6243819;23;20008;-62
2021/08/23 07:39:17;;;;;;;0.47;0.40;;;;;;;32.23;27.42;98356.50;6243407;23;20008;-62
2021/08/23 07:41:42;;;;;;;1.08;0.82;;;;;;;32.14;27.42;98354.81;6216398;23;20008;-63
2021/08/23 07:44:08;;;;;;;0.10;0.10;;;;;;;32.11;27.63;98361.28;6243415;23;20008;-63
2021/08/23 07:46:34;;;;;;;0.10;0.10;;;;;;;32.03;27.73;98359.53;6243039;23;20019;-63
2021/08/23 07:48:59;;;;;;;4.57;0.60;;;;;;;31.91;27.92;98369.16;6242884;23;20015;-63
2021/08/23 07:51:25;;;;;;;0.88;0.85;;;;;;;31.84;27.84;98366.22;6243181;23;20016;-63
2021/08/23 07:53:51;;;;;;;1.20;1.10;;;;;;;31.85;28.00;98365.03;6243112;23;20012;-64
2021/08/23 07:56:17;;;;;;;0.38;0.38;;;;;;;31.86;27.99;98363.00;6243160;23;20087;-62
2021/08/23 07:58:42;;;;;;;2.08;0.45;;;;;;;31.88;27.81;98375.59;6242969;23;20008;-63
2021/08/23 08:01:08;;;;;;;0.50;0.43;;;;;;;31.93;27.85;98360.25;6243238;23;20032;-63
2021/08/23 08:03:34;;;;;;;2.17;1.42;;;;;;;31.99;27.76;98367.19;6215487;23;20049;-63
2021/08/23 08:06:00;;;;;;;0.32;0.30;;;;;;;32.04;27.74;98374.53;6216141;23;20352;-63
2021/08/23 08:08:25;;;;;;;1.35;1.10;;;;;;;32.05;27.76;98367.66;6243283;23;20090;-63
2021/08/23 08:10:51;;;;;;;2.47;0.73;;;;;;;32.10;27.57;98373.00;6242420;23;20023;-63
2021/08/23 08:13:17;;;;;;;0.52;0.38;;;;;;;32.26;27.43;98367.91;6243234;23;20340;-63
2021/08/23 08:15:42;;;;;;;0.40;0.40;;;;;;;32.57;27.08;98367.75;6242537;23;20004;-63
2021/08/23 08:18:08;;;;;;;0.40;0.40;;;;;;;32.84;26.83;98368.41;6243042;23;20016;-63
2021/08/23 08:20:34;;;;;;;0.60;0.60;;;;;;;33.06;26.44;98365.69;6242204;23;20034;-63
2021/08/23 08:23:40;;;;;;;0.47;0.45;;;;;;;33.38;26.19;98365.91;6233790;23;20322;-60
2021/08/23 08:26:05;;;;;;;0.68;0.63;;;;;;;33.76;25.70;98371.34;6230851;23;20090;-62
2021/08/23 08:28:33;;;;;;;0.68;0.28;;;;;;;34.01;25.44;98382.81;6240256;23;20075;-62
2021/08/23 08:30:59;;;;;;;0.20;0.20;;;;;;;34.14;25.62;98369.81;6240177;23;20019;-62
2021/08/23 08:33:25;;;;;;;0.20;0.20;;;;;;;34.25;25.11;98383.25;6239560;23;20015;-62
2021/08/23 08:35:57;;;;;;;0.28;0.28;;;;;;;34.31;25.16;98385.34;6239931;23;20008;-61
2021/08/23 08:38:23;;;;;;;0.45;0.45;;;;;;;34.36;25.24;98381.25;6240187;23;20437;-61
2021/08/23 08:40:51;;;;;;;0.40;0.40;;;;;;;34.30;25.30;98385.75;6240193;23;20065;-62
2021/08/23 08:43:16;;;;;;;0.20;0.20;;;;;;;34.19;25.65;98386.50;6240494;23;20079;-62
2021/08/23 08:45:43;;;;;;;0.75;0.75;;;;;;;34.03;25.34;98386.06;6241029;23;20012;-63
2021/08/23 08:48:10;;;;;;;0.98;0.57;;;;;;;33.83;25.47;98386.41;6242317;23;20345;-63
2021/08/23 08:50:35;;;;;;;0.43;0.32;;;;;;;33.67;25.92;98403.84;6243371;23;20012;-63
2021/08/23 08:53:06;;;;;;;1.05;0.50;;;;;;;33.53;26.16;98400.94;6240336;23;20012;-63
2021/08/23 08:55:35;;;;;;;0.30;0.30;;;;;;;33.41;26.10;98404.94;6239674;23;20011;-62
2021/08/23 08:58:02;;;;;;;0.40;0.40;;;;;;;33.31;25.97;98402.84;6240040;23;20062;-63
2021/08/23 09:00:28;;;;;;;1.05;0.30;;;;;;;33.23;26.09;98412.53;6240055;23;20031;-66
2021/08/23 09:02:56;;;;;;;0.47;0.47;;;;;;;33.19;26.24;98401.94;6239798;23;20465;-62
2021/08/23 09:05:22;;;;;;;0.43;0.20;;;;;;;33.16;26.09;98408.41;6240207;23;20012;-61
2021/08/23 09:07:51;;;;;;;1.08;0.30;;;;;;;33.23;25.76;98401.16;6241612;23;20012;-61
2021/08/23 09:10:18;;;;;;;0.85;0.30;;;;;;;33.38;25.75;98404.91;6241956;23;20019;-60
2021/08/23 09:12:44;;;;;;;0.38;0.35;;;;;;;33.49;25.48;98405.78;6241785;23;20016;-61
2021/08/23 09:15:09;;;;;;;0.55;0.55;;;;;;;33.52;25.68;98411.50;6241399;23;20330;-62
2021/08/23 09:17:35;;;;;;;0.13;0.13;;;;;;;33.46;25.83;98409.44;6215243;23;20019;-61
2021/08/23 09:20:04;;;;;;;0.10;0.10;;;;;;;33.35;25.43;98398.00;6243553;23;20467;-61
2021/08/23 09:22:30;;;;;;;3.15;0.75;;;;;;;33.19;25.52;98406.81;6243217;23;20016;-61
2021/08/23 09:25:07;;;;;;;0.17;0.17;;;;;;;33.04;25.78;98396.53;6242957;23;20452;-62
2021/08/23 09:27:33;;;;;;;0.30;0.30;;;;;;;32.89;25.96;98401.31;6242877;23;20035;-62
2021/08/23 09:30:00;;;;;;;0.30;0.30;;;;;;;32.75;26.07;98408.53;6242637;23;20012;-64
2021/08/23 09:32:32;;;;;;;0.20;0.20;;;;;;;32.64;26.12;98393.38;6242858;23;20015;-64
2021/08/23 09:34:59;;;;;;;0.10;0.10;;;;;;;32.53;25.72;98396.16;6242301;23;20380;-62
2021/08/23 09:37:28;;;;;;;0.82;0.68;;;;;;;32.45;25.84;98395.28;6242685;23;20015;-62
2021/08/23 09:39:54;;;;;;;0.32;0.20;;;;;;;32.39;25.91;98396.00;6242794;23;20012;-62
2021/08/23 09:42:22;;;;;;;0.20;0.20;;;;;;;32.38;25.69;98383.03;6243391;23;20015;-61
2021/08/23 09:44:49;;;;;;;0.30;0.30;;;;;;;32.33;25.68;98377.69;6242705;23;20012;-63
2021/08/23 09:47:15;;;;;;;2.88;0.40;;;;;;;32.31;25.81;98384.56;6242761;23;20012;-62
2021/08/23 09:49:45;;;;;;;1.33;0.50;;;;;;;32.26;25.63;98381.31;6242438;23;20034;-62
2021/08/23 09:52:21;;;;;;;0.00;0.00;;;;;;;32.22;25.60;98372.72;6242795;23;20019;-61
2021/08/23 09:55:00;;;;;;;0.32;0.32;;;;;;;32.20;25.67;98369.47;6242546;23;20000;-61
2021/08/23 09:57:26;;;;;;;0.38;0.30;;;;;;;32.20;25.55;98360.13;6242364;23;20131;-62
2021/08/23 09:59:53;;;;;;;0.45;0.45;;;;;;;32.20;25.50;98378.00;6242331;23;20630;-61
2021/08/23 10:02:21;;;;;;;0.13;0.13;;;;;;;32.17;25.63;98367.41;6241327;23;20030;-64
2021/08/23 10:04:47;;;;;;;0.88;0.30;;;;;;;32.17;25.33;98380.78;6240807;23;20008;-62
2021/08/23 10:07:13;;;;;;;0.20;0.20;;;;;;;32.14;25.67;98366.19;6242793;23;20012;-61
2021/08/23 10:09:43;;;;;;;0.30;0.30;;;;;;;32.14;25.35;98362.50;6242490;23;20441;-63
2021/08/23 10:12:13;;;;;;;0.45;0.20;;;;;;;32.16;25.54;98365.78;6242521;23;20447;-62
2021/08/23 10:14:41;;;;;;;1.20;0.43;;;;;;;32.18;25.50;98365.38;6242149;23;20012;-63
2021/08/23 10:17:07;;;;;;;0.10;0.10;;;;;;;32.19;25.19;98364.19;6242064;23;20451;-64
2021/08/23 10:19:33;;;;;;;0.77;0.77;;;;;;;32.18;25.35;98371.06;6242566;23;20012;-63
2021/08/23 10:22:00;;;;;;;0.20;0.20;;;;;;;32.16;25.27;98367.81;6242186;23;20039;-64
2021/08/23 10:24:29;;;;;;;1.15;0.80;;;;;;;32.13;25.30;98350.34;6242255;23;20015;-63
2021/08/23 10:26:57;;;;;;;0.22;0.22;;;;;;;32.10;25.03;98353.13;6242578;23;20038;-63
2021/08/23 10:29:24;;;;;;;0.20;0.20;;;;;;;32.09;25.08;98352.28;6242104;23;20012;-64
2021/08/23 10:31:51;;;;;;;0.63;0.32;;;;;;;32.11;24.96;98355.59;6242060;23;20433;-64
2021/08/23 10:34:29;;;;;;;0.10;0.10;;;;;;;32.12;25.15;98348.69;6241800;23;20376;-64
2021/08/23 10:36:55;;;;;;;0.43;0.43;;;;;;;32.13;25.06;98346.69;6241244;23;20020;-68
2021/08/23 10:39:26;;;;;;;0.10;0.10;;;;;;;32.13;24.80;98333.28;6248621;23;20385;-64
2021/08/23 10:41:55;;;;;;;0.20;0.20;;;;;;;32.13;25.04;98330.44;6242331;23;20004;-62
2021/08/23 10:44:31;;;;;;;1.33;1.15;;;;;;;32.17;24.74;98336.19;6242682;23;20058;-69
2021/08/23 10:47:06;;;;;;;0.40;0.40;;;;;;;32.20;24.77;98329.72;6242258;23;20012;-62
2021/08/23 10:49:46;;;;;;;0.30;0.30;;;;;;;32.25;24.91;98328.53;6241970;23;20012;-64
2021/08/23 10:52:14;;;;;;;0.68;0.35;;;;;;;32.26;24.56;98333.03;6242198;23;20008;-63
2021/08/23 10:54:42;;;;;;;0.32;0.32;;;;;;;32.26;24.55;98333.03;6241587;23;20034;-64
2021/08/23 10:57:12;;;;;;;2.35;0.60;;;;;;;32.24;24.53;98339.06;6242154;23;20028;-66
2021/08/23 10:59:53;;;;;;;0.43;0.40;;;;;;;32.24;24.57;98326.91;6242249;23;20066;-65
2021/08/23 11:02:37;;;;;;;0.45;0.45;;;;;;;32.29;24.40;98337.91;6241799;23;20024;-63
2021/08/23 11:05:07;;;;;;;0.20;0.20;;;;;;;32.39;24.55;98331.50;6241302;23;20016;-64
2021/08/23 11:07:35;;;;;;;0.45;0.45;;;;;;;32.47;24.32;98324.66;6242376;23;20012;-65
2021/08/23 11:10:02;;;;;;;0.28;0.28;;;;;;;32.49;24.27;98325.09;6241661;23;20012;-64
2021/08/23 11:12:44;;;;;;;0.13;0.13;;;;;;;32.47;24.24;98327.50;6241661;23;20015;-65
2021/08/23 11:15:32;;;;;;;0.10;0.10;;;;;;;32.44;24.11;98314.06;6241960;23;20341;-63
2021/08/23 11:18:02;;;;;;;0.40;0.40;;;;;;;32.41;24.18;98323.38;6241142;23;20502;-60
2021/08/23 11:20:33;;;;;;;0.40;0.40;;;;;;;32.39;24.10;98305.09;6239622;23;20061;-61
2021/08/23 11:23:02;;;;;;;3.20;0.77;;;;;;;32.39;24.28;98305.94;6241327;23;20453;-63
2021/08/23 11:25:44;;;;;;;0.20;0.20;;;;;;;32.38;24.21;98304.28;6241693;23;20401;-63
2021/08/23 11:28:17;;;;;;;0.40;0.40;;;;;;;32.35;24.26;98299.41;6214310;23;20020;-62
2021/08/23 11:30:46;;;;;;;0.13;0.13;;;;;;;32.33;24.51;98310.31;6241978;23;20019;-64
2021/08/23 11:33:23;;;;;;;0.22;0.13;;;;;;;32.33;24.24;98304.66;6241211;23;20093;-62
2021/08/23 11:35:49;;;;;;;0.10;0.10;;;;;;;32.33;24.38;98315.19;6242245;23;20007;-63